createdAt,value
2019-02-22T00:01:08.660Z,70.59
2019-02-22T00:06:14.829Z,70.65
2019-02-22T00:11:21.756Z,69.35
2019-02-22T00:16:27.587Z,70.01
2019-02-22T00:21:33.696Z,70.41
2019-02-22T00:26:40.374Z,69.98
2019-02-22T00:31:47.105Z,69.15
2019-02-22T00:36:53.304Z,68.34
2019-02-22T00:41:58.884Z,68.84
2019-02-22T00:47:05.677Z,67.49
2019-02-22T00:52:12.395Z,69.37
2019-02-22T00:57:20.392Z,69.65
2019-02-22T01:02:27.802Z,68.48
2019-02-22T01:07:34.738Z,70.14
2019-02-22T01:12:41.425Z,70.09
2019-02-22T01:17:47.396Z,69.91
2019-02-22T01:22:53.124Z,69.67
2019-02-22T01:28:00.485Z,69.91
2019-02-22T01:33:06.544Z,70.70
2019-02-22T01:38:13.240Z,69.88
2019-02-22T01:43:19.112Z,69.69
2019-02-22T01:48:24.721Z,69.54
2019-02-22T01:53:30.812Z,69.70
2019-02-22T01:58:47.957Z,68.90
2019-02-22T02:03:44.575Z,68.54
2019-02-22T02:08:51.185Z,67.83
2019-02-22T02:13:57.090Z,67.92
2019-02-22T02:19:02.730Z,67.58
2019-02-22T02:24:08.818Z,66.17
2019-02-22T02:29:14.929Z,67.44
2019-02-22T02:34:20.709Z,67.15
2019-02-22T02:39:27.016Z,67.23
2019-02-22T02:44:32.591Z,66.18
2019-02-22T02:49:38.202Z,66.41
2019-02-22T02:54:43.794Z,66.18
2019-02-22T02:59:51.168Z,65.81
2019-02-22T03:04:57.254Z,66.86
2019-02-22T03:10:03.319Z,66.89
2019-02-22T03:15:12.234Z,65.34
2019-02-22T03:20:18.284Z,65.82
2019-02-22T03:25:24.319Z,65.93
2019-02-22T03:30:30.334Z,64.86
2019-02-22T03:35:36.558Z,63.80
2019-02-22T03:40:42.742Z,62.34
2019-02-22T03:45:48.717Z,62.38
2019-02-22T03:50:54.433Z,62.67
2019-02-22T03:56:00.498Z,63.67
2019-02-22T04:01:06.521Z,63.48
2019-02-22T04:06:12.554Z,63.04
2019-02-22T04:11:18.208Z,61.62
2019-02-22T04:16:24.383Z,59.75
2019-02-22T04:21:30.606Z,60.28
2019-02-22T04:26:36.990Z,60.39
2019-02-22T04:31:42.770Z,59.65
2019-02-22T04:36:48.600Z,59.57
2019-02-22T04:41:58.051Z,59.79
2019-02-22T04:47:01.890Z,60.13
2019-02-22T04:52:09.158Z,59.85
2019-02-22T04:57:15.107Z,60.29
2019-02-22T05:02:21.004Z,60.82
2019-02-22T05:07:27.601Z,60.70
2019-02-22T05:12:33.433Z,59.31
2019-02-22T05:17:39.040Z,59.54
2019-02-22T05:22:44.960Z,58.97
2019-02-22T05:27:51.262Z,57.97
2019-02-22T05:32:56.831Z,57.54
2019-02-22T05:38:03.085Z,58.76
2019-02-22T05:43:08.778Z,57.80
2019-02-22T05:48:14.616Z,57.50
2019-02-22T05:53:20.607Z,57.13
2019-02-22T05:58:28.820Z,57.81
2019-02-22T06:03:35.297Z,57.37
2019-02-22T06:08:43.038Z,58.37
2019-02-22T06:13:48.625Z,58.26
2019-02-22T06:18:54.559Z,58.23
2019-02-22T06:24:02.757Z,56.54
2019-02-22T06:29:08.645Z,55.93
2019-02-22T06:34:14.460Z,55.82
2019-02-22T06:39:20.507Z,56.12
2019-02-22T06:44:26.243Z,56.54
2019-02-22T06:49:32.276Z,55.75
2019-02-22T06:54:39.455Z,54.71
2019-02-22T06:59:45.491Z,54.21
2019-02-22T07:04:52.735Z,52.91
2019-02-22T07:09:58.599Z,51.18
2019-02-22T07:15:06.579Z,51.61
2019-02-22T07:20:12.371Z,51.70
2019-02-22T07:25:18.977Z,52.52
2019-02-22T07:30:24.562Z,51.06
2019-02-22T07:35:30.634Z,50.53
2019-02-22T07:40:37.633Z,48.25
2019-02-22T07:45:44.083Z,46.68
2019-02-22T07:50:57.488Z,47.96
2019-02-22T07:55:57.809Z,46.25
2019-02-22T08:01:04.868Z,48.63
2019-02-22T08:06:10.726Z,44.46
2019-02-22T08:11:16.466Z,45.20
2019-02-22T08:16:22.373Z,47.44
2019-02-22T08:21:29.940Z,45.63
2019-02-22T08:26:35.542Z,45.83
2019-02-22T08:31:41.499Z,45.57
2019-02-22T08:36:47.245Z,44.80
2019-02-22T08:41:53.636Z,46.13
2019-02-22T08:46:59.535Z,46.18
2019-02-22T08:52:05.511Z,47.08
2019-02-22T08:57:11.549Z,46.19
2019-02-22T09:02:17.520Z,44.67
2019-02-22T09:07:23.733Z,44.42
2019-02-22T09:12:29.484Z,45.63
2019-02-22T09:17:35.119Z,44.71
2019-02-22T09:22:41.279Z,44.75
2019-02-22T09:27:47.206Z,44.34
2019-02-22T09:32:53.266Z,41.78
2019-02-22T09:37:58.907Z,41.13
2019-02-22T09:43:04.715Z,39.18
2019-02-22T09:48:11.185Z,40.00
2019-02-22T09:53:16.824Z,37.43
2019-02-22T09:58:23.382Z,37.07
2019-02-22T10:03:31.797Z,36.33
2019-02-22T10:08:40.028Z,34.75
2019-02-22T10:13:46.170Z,36.15
2019-02-22T10:18:53.203Z,35.40
2019-02-22T10:23:59.657Z,34.20
2019-02-22T10:29:07.330Z,33.25
2019-02-22T10:34:13.044Z,32.73
2019-02-22T10:39:19.794Z,32.57
2019-02-22T10:44:26.574Z,28.48
2019-02-22T10:49:32.786Z,31.38
2019-02-22T10:54:39.069Z,31.53
2019-02-22T10:59:44.851Z,32.29
2019-02-22T11:04:50.875Z,32.33
2019-02-22T11:09:56.485Z,31.87
2019-02-22T11:15:02.342Z,30.00
2019-02-22T11:20:09.996Z,27.99
2019-02-22T11:25:16.799Z,30.82
2019-02-22T11:30:23.722Z,28.99
2019-02-22T11:35:29.981Z,31.42
2019-02-22T11:40:36.892Z,33.12
2019-02-22T11:45:42.727Z,26.70
2019-02-22T11:50:48.801Z,27.21
2019-02-22T11:55:55.608Z,27.53
2019-02-22T12:01:01.512Z,29.77
2019-02-22T12:06:08.005Z,26.37
2019-02-22T12:11:13.628Z,27.57
2019-02-22T12:16:19.749Z,28.39
2019-02-22T12:21:26.323Z,27.49
2019-02-22T12:26:32.215Z,29.06
2019-02-22T12:31:38.355Z,26.51
2019-02-22T12:36:45.708Z,24.53
2019-02-22T12:41:53.621Z,29.46
2019-02-22T12:47:01.537Z,27.72
2019-02-22T12:52:07.369Z,27.47
2019-02-22T12:57:12.929Z,24.95
2019-02-22T13:02:19.855Z,25.30
2019-02-22T13:07:25.969Z,27.06
2019-02-22T13:12:31.543Z,27.20
2019-02-22T13:17:39.305Z,26.15
2019-02-22T13:22:44.922Z,24.15
2019-02-22T13:27:50.790Z,25.92
2019-02-22T13:32:57.233Z,26.72
2019-02-22T13:38:03.917Z,27.85
2019-02-22T13:43:10.549Z,24.91
2019-02-22T13:48:17.404Z,25.19
2019-02-22T13:53:23.802Z,24.35
2019-02-22T13:58:29.565Z,24.66
2019-02-22T14:03:35.530Z,22.97
2019-02-22T14:08:43.468Z,24.88
2019-02-22T14:13:50.597Z,21.71
2019-02-22T14:18:56.699Z,24.03
2019-02-22T14:24:02.916Z,22.66
2019-02-22T14:29:09.114Z,23.46
2019-02-22T14:34:16.179Z,21.30
2019-02-22T14:39:23.311Z,22.84
2019-02-22T14:44:29.037Z,22.49
2019-02-22T14:49:37.371Z,22.01
2019-02-22T14:54:43.497Z,21.76
2019-02-22T14:59:50.410Z,23.62
2019-02-22T15:04:56.779Z,21.91
2019-02-22T15:10:05.586Z,22.54
2019-02-22T15:15:18.676Z,23.43
2019-02-22T15:20:26.044Z,22.59
2019-02-22T15:25:32.349Z,22.26
2019-02-22T15:30:38.180Z,22.53
2019-02-22T15:35:45.012Z,23.25
2019-02-22T15:40:53.781Z,22.34
2019-02-22T15:46:11.771Z,22.03
2019-02-22T15:51:10.148Z,22.50
2019-02-22T15:56:18.248Z,20.88
2019-02-22T16:01:23.686Z,22.82
2019-02-22T16:06:32.373Z,25.69
2019-02-22T16:11:40.220Z,23.46
2019-02-22T16:16:46.642Z,23.67
2019-02-22T16:21:53.240Z,25.05
2019-02-22T16:27:02.575Z,23.46
2019-02-22T16:32:08.419Z,24.33
2019-02-22T16:37:15.319Z,26.21
2019-02-22T16:42:22.592Z,28.65
2019-02-22T16:47:39.312Z,29.83
2019-02-22T16:52:36.956Z,29.84
2019-02-22T16:57:42.934Z,29.38
2019-02-22T17:02:48.748Z,30.90
2019-02-22T17:07:55.252Z,31.15
2019-02-22T17:13:01.461Z,32.01
2019-02-22T17:18:07.450Z,31.33
2019-02-22T17:23:13.372Z,32.37
2019-02-22T17:28:18.948Z,32.16
2019-02-22T17:33:25.772Z,31.26
2019-02-22T17:38:33.061Z,31.61
2019-02-22T17:43:41.279Z,31.72
2019-02-22T17:48:49.440Z,31.52
2019-02-22T17:53:58.426Z,29.39
2019-02-22T17:59:04.603Z,32.18
2019-02-22T18:04:11.370Z,32.23
2019-02-22T18:09:17.671Z,30.96
2019-02-22T18:14:23.311Z,32.64
2019-02-22T18:19:32.096Z,32.87
2019-02-22T18:24:38.863Z,33.25
2019-02-22T18:29:44.895Z,33.60
2019-02-22T18:34:51.357Z,33.88
2019-02-22T18:39:57.689Z,32.89
2019-02-22T18:45:05.357Z,33.90
2019-02-22T18:50:11.863Z,33.44
2019-02-22T18:55:19.539Z,33.24
2019-02-22T19:00:25.742Z,34.46
2019-02-22T19:05:37.004Z,34.43
2019-02-22T19:10:43.940Z,33.81
2019-02-22T19:15:49.800Z,33.63
2019-02-22T19:20:57.560Z,33.60
2019-02-22T19:26:04.051Z,34.00
2019-02-22T19:31:10.178Z,34.41
2019-02-22T19:36:16.208Z,34.28
2019-02-22T19:41:22.177Z,34.70
2019-02-22T19:46:28.870Z,34.05
2019-02-22T19:51:35.074Z,34.64
2019-02-22T19:56:41.152Z,33.84
2019-02-22T20:01:47.072Z,35.17
2019-02-22T20:06:54.422Z,34.89
2019-02-22T20:12:00.229Z,34.18
2019-02-22T20:17:05.939Z,34.16
2019-02-22T20:22:11.799Z,34.33
2019-02-22T20:27:17.970Z,33.68
2019-02-22T20:32:24.032Z,34.56
2019-02-22T20:37:30.270Z,30.73
2019-02-22T20:42:36.693Z,30.41
2019-02-22T20:47:43.861Z,30.14
2019-02-22T20:52:50.359Z,30.82
2019-02-22T20:57:56.713Z,31.21
2019-02-22T21:03:04.260Z,31.14
2019-02-22T21:08:11.091Z,30.92
2019-02-22T21:13:17.629Z,30.36
2019-02-22T21:18:23.594Z,31.06
2019-02-22T21:23:29.550Z,29.93
2019-02-22T21:28:36.081Z,31.58
2019-02-22T21:33:42.340Z,31.34
2019-02-22T21:38:48.417Z,32.28
2019-02-22T21:43:54.211Z,32.48
2019-02-22T21:49:00.417Z,32.21
2019-02-22T21:54:06.835Z,32.39
2019-02-22T21:59:13.597Z,32.81
2019-02-22T22:04:19.690Z,32.88
2019-02-22T22:09:25.738Z,32.61
2019-02-22T22:14:31.857Z,32.97
2019-02-22T22:19:37.962Z,33.19
2019-02-22T22:24:44.081Z,33.61
2019-02-22T22:29:50.899Z,33.54
2019-02-22T22:34:58.232Z,34.12
2019-02-22T22:40:05.626Z,34.14
2019-02-22T22:45:13.780Z,33.79
2019-02-22T22:50:19.927Z,34.21
2019-02-22T22:55:25.606Z,34.45
2019-02-22T23:00:51.383Z,34.75
2019-02-22T23:05:58.589Z,34.84
2019-02-22T23:11:04.254Z,34.55
2019-02-22T23:16:11.534Z,35.03
2019-02-22T23:21:18.210Z,34.83
2019-02-22T23:26:24.176Z,34.61
2019-02-22T23:31:30.325Z,35.08
2019-02-22T23:36:36.277Z,35.02
2019-02-22T23:41:42.072Z,34.87
2019-02-22T23:46:47.792Z,34.17
2019-02-22T23:51:54.317Z,34.16
2019-02-22T23:57:00.658Z,34.57
